createdAt,value
2022-11-29T00:02:36.730Z,11.01
2022-11-29T00:05:23.580Z,11.00
2022-11-29T00:08:10.663Z,11.00
2022-11-29T00:10:57.701Z,11.00
2022-11-29T00:13:45.738Z,11.03
2022-11-29T00:16:33.196Z,11.06
2022-11-29T00:19:22.453Z,11.00
2022-11-29T00:22:13.130Z,11.02
2022-11-29T00:25:02.277Z,11.02
2022-11-29T00:27:50.715Z,11.05
2022-11-29T00:30:40.103Z,11.07
2022-11-29T00:33:27.402Z,11.04
2022-11-29T00:36:14.824Z,11.08
2022-11-29T00:39:02.244Z,11.03
2022-11-29T00:41:48.991Z,11.02
2022-11-29T00:44:36.393Z,10.99
2022-11-29T00:47:24.784Z,11.00
2022-11-29T00:50:12.916Z,10.92
2022-11-29T00:52:59.613Z,10.92
2022-11-29T00:55:49.184Z,10.96
2022-11-29T00:58:37.337Z,10.95
2022-11-29T01:01:24.392Z,10.95
2022-11-29T01:04:12.493Z,10.94
2022-11-29T01:06:59.915Z,10.96
2022-11-29T01:09:47.202Z,10.96
2022-11-29T01:12:36.260Z,10.99
2022-11-29T01:15:23.017Z,10.96
2022-11-29T01:18:10.449Z,10.99
2022-11-29T01:21:00.063Z,10.98
2022-11-29T01:23:48.649Z,11.00
2022-11-29T01:26:35.388Z,11.00
2022-11-29T01:29:22.680Z,10.99
2022-11-29T01:32:09.607Z,10.99
2022-11-29T01:34:56.869Z,11.01
2022-11-29T01:37:45.169Z,11.01
2022-11-29T01:40:32.505Z,11.00
2022-11-29T01:43:19.598Z,11.01
2022-11-29T01:46:06.693Z,11.02
2022-11-29T01:48:58.411Z,11.03
2022-11-29T01:51:49.549Z,11.02
2022-11-29T01:54:41.143Z,11.03
2022-11-29T01:57:29.312Z,11.03
2022-11-29T02:00:19.263Z,11.03
2022-11-29T02:03:11.292Z,11.03
2022-11-29T02:05:58.147Z,11.01
2022-11-29T02:08:45.185Z,11.03
2022-11-29T02:12:00.338Z,10.99
2022-11-29T02:15:09.864Z,10.97
2022-11-29T02:18:05.567Z,11.01
2022-11-29T02:21:10.919Z,11.00
2022-11-29T02:24:32.211Z,10.98
2022-11-29T02:28:01.184Z,11.00
2022-11-29T02:31:15.892Z,11.00
2022-11-29T02:34:42.563Z,10.98
2022-11-29T02:37:58.051Z,11.00
2022-11-29T02:41:00.106Z,11.00
2022-11-29T02:44:13.211Z,11.00
2022-11-29T02:47:13.526Z,11.04
2022-11-29T02:50:19.374Z,11.04
2022-11-29T02:53:16.455Z,11.02
2022-11-29T02:56:12.822Z,11.01
2022-11-29T02:59:05.907Z,11.01
2022-11-29T03:02:03.080Z,10.92
2022-11-29T03:04:55.594Z,10.97
2022-11-29T03:07:52.630Z,10.96
2022-11-29T03:10:56.472Z,10.99
2022-11-29T03:13:53.411Z,11.05
2022-11-29T03:16:46.875Z,11.02
2022-11-29T03:19:57.979Z,11.07
2022-11-29T03:22:53.250Z,11.05
2022-11-29T03:25:46.610Z,11.03
2022-11-29T03:28:39.057Z,11.03
2022-11-29T03:31:33.084Z,11.05
2022-11-29T03:34:26.529Z,11.08
2022-11-29T03:37:18.389Z,11.11
2022-11-29T03:40:08.693Z,11.07
2022-11-29T03:43:01.940Z,11.10
2022-11-29T03:45:54.846Z,11.15
2022-11-29T03:48:48.049Z,11.14
2022-11-29T03:51:49.230Z,11.14
2022-11-29T03:54:48.948Z,11.16
2022-11-29T03:57:46.501Z,11.17
2022-11-29T04:00:45.874Z,11.17
2022-11-29T04:04:04.514Z,11.20
2022-11-29T04:07:08.165Z,11.22
2022-11-29T04:10:17.699Z,11.23
2022-11-29T04:13:27.456Z,11.24
2022-11-29T04:16:57.196Z,11.23
2022-11-29T04:20:04.344Z,11.27
2022-11-29T04:23:19.423Z,11.26
2022-11-29T04:26:39.805Z,11.23
2022-11-29T04:29:53.715Z,11.27
2022-11-29T04:33:24.655Z,11.28
2022-11-29T04:37:08.906Z,11.27
2022-11-29T04:40:24.640Z,11.26
2022-11-29T04:43:30.345Z,11.28
2022-11-29T04:46:58.420Z,11.26
2022-11-29T04:50:04.646Z,11.29
2022-11-29T04:53:21.666Z,11.26
2022-11-29T04:56:16.267Z,11.31
2022-11-29T04:59:10.782Z,11.32
2022-11-29T05:02:08.758Z,11.34
2022-11-29T05:05:05.362Z,11.39
2022-11-29T05:08:09.266Z,11.44
2022-11-29T05:11:04.896Z,11.47
2022-11-29T05:13:59.370Z,11.46
2022-11-29T05:16:49.852Z,11.42
2022-11-29T05:19:54.269Z,11.42
2022-11-29T05:22:54.784Z,11.44
2022-11-29T05:25:51.431Z,11.45
2022-11-29T05:28:47.494Z,11.46
2022-11-29T05:31:56.210Z,11.48
2022-11-29T05:35:01.950Z,11.50
2022-11-29T05:37:53.786Z,11.53
2022-11-29T05:40:51.118Z,11.55
2022-11-29T05:43:50.803Z,11.59
2022-11-29T05:46:49.129Z,11.58
2022-11-29T05:49:42.846Z,11.56
2022-11-29T05:52:43.031Z,11.54
2022-11-29T05:55:41.403Z,11.55
2022-11-29T05:58:36.828Z,11.51
2022-11-29T06:01:26.382Z,11.48
2022-11-29T06:04:18.895Z,11.49
2022-11-29T06:07:13.256Z,11.46
2022-11-29T06:10:04.492Z,11.42
2022-11-29T06:13:09.299Z,11.39
2022-11-29T06:16:10.993Z,11.35
2022-11-29T06:19:30.423Z,11.35
2022-11-29T06:22:41.895Z,11.39
2022-11-29T06:25:47.597Z,11.38
2022-11-29T06:28:47.739Z,11.34
2022-11-29T06:31:38.966Z,11.28
2022-11-29T06:34:32.515Z,11.33
2022-11-29T06:37:28.509Z,11.37
2022-11-29T06:40:16.921Z,11.34
2022-11-29T06:43:04.390Z,11.39
2022-11-29T06:45:56.152Z,11.42
2022-11-29T06:48:50.652Z,11.46
2022-11-29T06:51:49.539Z,11.48
2022-11-29T06:54:51.424Z,11.49
2022-11-29T06:57:51.055Z,11.53
2022-11-29T07:00:46.100Z,11.54
2022-11-29T07:03:54.869Z,11.53
2022-11-29T07:06:42.829Z,11.49
2022-11-29T07:09:35.629Z,11.47
2022-11-29T07:12:23.119Z,11.49
2022-11-29T07:15:15.079Z,11.49
2022-11-29T07:18:20.100Z,11.49
2022-11-29T07:21:18.785Z,11.52
2022-11-29T07:24:17.058Z,11.54
2022-11-29T07:27:12.449Z,11.49
2022-11-29T07:30:10.458Z,11.48
2022-11-29T07:33:09.002Z,11.52
2022-11-29T07:36:03.051Z,11.45
2022-11-29T07:39:01.715Z,11.44
2022-11-29T07:41:59.837Z,11.42
2022-11-29T07:44:57.534Z,11.48
2022-11-29T07:47:44.354Z,11.56
2022-11-29T07:50:32.450Z,11.64
2022-11-29T07:53:21.727Z,11.66
2022-11-29T07:56:10.471Z,11.66
2022-11-29T07:58:57.473Z,11.69
2022-11-29T08:01:44.828Z,11.74
2022-11-29T08:04:31.516Z,11.72
2022-11-29T08:07:18.399Z,11.79
2022-11-29T08:10:09.633Z,11.79
2022-11-29T08:12:58.054Z,11.79
2022-11-29T08:15:46.711Z,11.80
2022-11-29T08:18:33.587Z,11.84
2022-11-29T08:21:21.152Z,11.80
2022-11-29T08:24:08.327Z,11.87
2022-11-29T08:26:55.532Z,11.87
2022-11-29T08:29:44.082Z,11.90
2022-11-29T08:32:31.539Z,11.91
2022-11-29T08:35:19.334Z,11.99
2022-11-29T08:38:06.897Z,12.02
2022-11-29T08:40:53.766Z,12.08
2022-11-29T08:43:41.520Z,12.11
2022-11-29T08:46:43.730Z,12.16
2022-11-29T08:49:30.698Z,12.23
2022-11-29T08:52:34.661Z,12.29
2022-11-29T08:55:24.487Z,12.36
2022-11-29T08:58:13.747Z,12.38
2022-11-29T09:01:00.681Z,12.42
2022-11-29T09:04:02.829Z,12.49
2022-11-29T09:06:50.453Z,12.51
2022-11-29T09:09:37.263Z,12.55
2022-11-29T09:12:24.593Z,12.61
2022-11-29T09:15:12.431Z,12.64
2022-11-29T09:17:59.728Z,12.72
2022-11-29T09:20:47.685Z,12.76
2022-11-29T09:23:35.063Z,12.84
2022-11-29T09:26:21.868Z,12.83
2022-11-29T09:29:09.956Z,12.92
2022-11-29T09:31:57.176Z,12.87
2022-11-29T09:34:44.835Z,12.94
2022-11-29T09:37:33.227Z,12.93
2022-11-29T09:40:24.192Z,13.03
2022-11-29T09:43:22.979Z,13.13
2022-11-29T09:46:18.835Z,13.16
2022-11-29T09:49:21.343Z,13.20
2022-11-29T09:52:18.600Z,13.25
2022-11-29T09:55:20.486Z,13.28
2022-11-29T09:58:14.278Z,13.37
2022-11-29T10:01:06.478Z,13.34
2022-11-29T10:03:55.723Z,13.30
2022-11-29T10:06:44.071Z,13.40
2022-11-29T10:09:37.598Z,13.48
2022-11-29T10:12:36.033Z,13.49
2022-11-29T10:15:27.948Z,13.50
2022-11-29T10:18:20.198Z,13.45
2022-11-29T10:21:13.662Z,13.44
2022-11-29T10:24:05.561Z,13.48
2022-11-29T10:26:52.676Z,13.49
2022-11-29T10:29:41.032Z,13.49
2022-11-29T10:32:32.151Z,13.45
2022-11-29T10:35:20.811Z,13.51
2022-11-29T10:38:29.667Z,13.50
2022-11-29T10:41:20.458Z,13.55
2022-11-29T10:44:07.788Z,13.49
2022-11-29T10:46:57.130Z,13.56
2022-11-29T10:49:44.602Z,13.52
2022-11-29T10:52:31.357Z,13.58
2022-11-29T10:55:19.429Z,13.59
2022-11-29T10:58:12.205Z,13.60
2022-11-29T11:01:01.350Z,13.62
2022-11-29T11:03:53.964Z,13.58
2022-11-29T11:06:47.098Z,13.62
2022-11-29T11:09:36.667Z,13.60
2022-11-29T11:12:27.464Z,13.69
2022-11-29T11:15:17.457Z,13.74
2022-11-29T11:18:06.840Z,13.79
2022-11-29T11:20:57.536Z,13.82
2022-11-29T11:23:53.919Z,13.84
2022-11-29T11:26:44.764Z,13.86
2022-11-29T11:29:36.914Z,13.84
2022-11-29T11:32:23.858Z,13.84
2022-11-29T11:35:23.934Z,13.79
2022-11-29T11:38:18.437Z,13.75
2022-11-29T11:41:13.540Z,13.71
2022-11-29T11:44:04.473Z,13.66
2022-11-29T11:46:54.402Z,13.66
2022-11-29T11:49:48.893Z,13.73
2022-11-29T11:52:46.268Z,13.79
2022-11-29T11:55:41.594Z,13.81
2022-11-29T11:58:30.941Z,13.80
2022-11-29T12:01:27.091Z,13.72
2022-11-29T12:04:18.382Z,13.75
2022-11-29T12:07:10.833Z,13.74
2022-11-29T12:10:04.202Z,13.79
2022-11-29T12:12:53.270Z,13.77
2022-11-29T12:15:44.074Z,13.77
2022-11-29T12:18:38.539Z,13.73
2022-11-29T12:21:28.709Z,13.73
2022-11-29T12:24:23.786Z,13.75
2022-11-29T12:27:14.922Z,13.78
2022-11-29T12:30:03.243Z,13.77
2022-11-29T12:33:05.409Z,13.76
2022-11-29T12:36:13.886Z,13.77
2022-11-29T12:39:12.348Z,13.78
2022-11-29T12:42:07.536Z,13.76
2022-11-29T12:45:02.367Z,13.74
2022-11-29T12:48:04.718Z,13.72
2022-11-29T12:51:02.778Z,13.72
2022-11-29T12:54:11.767Z,13.70
2022-11-29T12:57:05.536Z,13.68
2022-11-29T13:00:05.599Z,13.67
2022-11-29T13:03:07.955Z,13.69
2022-11-29T13:06:13.939Z,13.71
2022-11-29T13:09:21.885Z,13.69
2022-11-29T13:12:17.609Z,13.71
2022-11-29T13:15:11.645Z,13.74
2022-11-29T13:18:05.861Z,13.77
2022-11-29T13:21:00.294Z,13.77
2022-11-29T13:24:10.304Z,13.78
2022-11-29T13:26:59.538Z,13.78
2022-11-29T13:29:47.371Z,13.75
2022-11-29T13:32:36.855Z,13.73
2022-11-29T13:35:31.936Z,13.74
2022-11-29T13:38:23.925Z,13.71
2022-11-29T13:41:20.782Z,13.67
2022-11-29T13:44:16.006Z,13.63
2022-11-29T13:47:07.910Z,13.64
2022-11-29T13:50:02.266Z,13.63
2022-11-29T13:52:50.900Z,13.62
2022-11-29T13:55:46.206Z,13.59
2022-11-29T13:58:39.770Z,13.59
2022-11-29T14:01:27.751Z,13.58
2022-11-29T14:04:27.719Z,13.59
2022-11-29T14:07:18.782Z,13.57
2022-11-29T14:10:26.387Z,13.56
2022-11-29T14:13:16.859Z,13.53
2022-11-29T14:16:06.666Z,13.53
2022-11-29T14:19:20.654Z,13.51
2022-11-29T14:22:22.040Z,13.52
2022-11-29T14:25:50.702Z,13.50
2022-11-29T14:28:35.414Z,13.45
2022-11-29T14:31:48.255Z,13.31
2022-11-29T14:34:50.586Z,13.30
2022-11-29T14:37:54.306Z,13.30
2022-11-29T14:40:51.736Z,13.33
2022-11-29T14:43:41.280Z,13.33
2022-11-29T14:46:33.280Z,13.33
2022-11-29T14:49:24.919Z,13.34
2022-11-29T14:52:23.394Z,13.31
2022-11-29T14:55:31.799Z,13.29
2022-11-29T14:58:22.608Z,13.33
2022-11-29T15:01:11.181Z,13.29
2022-11-29T15:03:59.633Z,13.30
2022-11-29T15:06:52.838Z,13.30
2022-11-29T15:09:42.781Z,13.33
2022-11-29T15:12:35.132Z,13.29
2022-11-29T15:15:45.053Z,13.27
2022-11-29T15:19:00.247Z,13.28
2022-11-29T15:21:55.624Z,13.23
2022-11-29T15:24:55.382Z,13.21
2022-11-29T15:27:51.647Z,13.17
2022-11-29T15:30:41.717Z,13.11
2022-11-29T15:33:29.410Z,13.13
2022-11-29T15:36:20.233Z,13.16
2022-11-29T15:39:26.763Z,13.13
2022-11-29T15:42:16.593Z,13.14
2022-11-29T15:45:24.278Z,13.14
2022-11-29T15:48:20.405Z,13.18
2022-11-29T15:51:18.302Z,13.15
2022-11-29T15:54:13.811Z,13.14
2022-11-29T15:57:04.904Z,13.12
2022-11-29T15:59:55.535Z,13.08
2022-11-29T16:02:49.446Z,13.09
2022-11-29T16:05:40.579Z,13.09
2022-11-29T16:08:31.089Z,13.07
2022-11-29T16:11:22.132Z,13.07
2022-11-29T16:14:19.478Z,13.00
2022-11-29T16:17:06.187Z,13.00
2022-11-29T16:19:53.192Z,13.02
2022-11-29T16:22:41.680Z,12.97
2022-11-29T16:25:31.139Z,12.91
2022-11-29T16:28:22.053Z,12.88
2022-11-29T16:31:12.421Z,12.85
2022-11-29T16:34:08.656Z,12.89
2022-11-29T16:37:04.048Z,12.93
2022-11-29T16:39:55.035Z,12.90
2022-11-29T16:42:44.194Z,12.78
2022-11-29T16:45:34.412Z,12.78
2022-11-29T16:48:32.220Z,12.80
2022-11-29T16:51:25.161Z,12.80
2022-11-29T16:54:24.166Z,12.86
2022-11-29T16:57:13.869Z,12.85
2022-11-29T17:00:00.493Z,12.87
2022-11-29T17:02:47.624Z,12.87
2022-11-29T17:05:34.647Z,12.89
2022-11-29T17:08:22.148Z,12.91
2022-11-29T17:11:09.800Z,12.94
2022-11-29T17:13:58.346Z,12.98
2022-11-29T17:16:49.105Z,12.95
2022-11-29T17:19:36.793Z,12.94
2022-11-29T17:22:23.850Z,12.90
2022-11-29T17:25:11.723Z,12.90
2022-11-29T17:27:58.917Z,12.87
2022-11-29T17:30:47.219Z,12.86
2022-11-29T17:33:34.366Z,12.80
2022-11-29T17:36:22.586Z,12.82
2022-11-29T17:39:10.002Z,12.83
2022-11-29T17:41:57.420Z,12.79
2022-11-29T17:44:44.162Z,12.77
2022-11-29T17:47:33.431Z,12.79
2022-11-29T17:50:20.466Z,12.78
2022-11-29T17:53:08.024Z,12.81
2022-11-29T17:55:55.017Z,12.83
2022-11-29T17:58:42.936Z,12.85
2022-11-29T18:01:31.835Z,12.90
2022-11-29T18:04:20.441Z,12.86
2022-11-29T18:07:07.253Z,12.87
2022-11-29T18:09:54.796Z,12.87
2022-11-29T18:12:41.923Z,12.90
2022-11-29T18:15:29.109Z,12.93
2022-11-29T18:18:15.819Z,12.94
2022-11-29T18:21:06.133Z,12.94
2022-11-29T18:23:53.204Z,12.95
2022-11-29T18:26:40.754Z,12.97
2022-11-29T18:29:29.511Z,12.94
2022-11-29T18:32:19.837Z,12.95
2022-11-29T18:35:07.756Z,12.95
2022-11-29T18:38:14.870Z,12.97
2022-11-29T18:41:08.785Z,12.92
2022-11-29T18:43:58.902Z,12.90
2022-11-29T18:46:47.140Z,12.90
2022-11-29T18:49:37.317Z,12.89
2022-11-29T18:52:24.098Z,12.88
2022-11-29T18:55:12.862Z,12.87
2022-11-29T18:58:00.563Z,12.85
2022-11-29T19:00:49.201Z,12.87
2022-11-29T19:03:37.546Z,12.87
2022-11-29T19:06:26.526Z,12.86
2022-11-29T19:09:17.807Z,12.84
2022-11-29T19:12:10.335Z,12.85
2022-11-29T19:14:57.667Z,12.86
2022-11-29T19:17:45.390Z,12.82
2022-11-29T19:20:34.369Z,12.75
2022-11-29T19:23:21.985Z,12.71
2022-11-29T19:26:11.005Z,12.68
2022-11-29T19:29:01.320Z,12.64
2022-11-29T19:31:48.128Z,12.65
2022-11-29T19:34:35.408Z,12.64
2022-11-29T19:37:22.260Z,12.59
2022-11-29T19:40:10.163Z,12.59
2022-11-29T19:42:57.339Z,12.57
2022-11-29T19:45:45.807Z,12.60
2022-11-29T19:48:32.707Z,12.61
2022-11-29T19:51:20.556Z,12.64
2022-11-29T19:54:09.830Z,12.63
2022-11-29T19:56:58.664Z,12.65
2022-11-29T19:59:45.950Z,12.64
2022-11-29T20:02:34.647Z,12.64
2022-11-29T20:05:22.246Z,12.58
2022-11-29T20:08:09.212Z,12.65
2022-11-29T20:10:56.908Z,12.73
2022-11-29T20:13:46.064Z,12.75
2022-11-29T20:16:33.638Z,12.69
2022-11-29T20:19:22.077Z,12.66
2022-11-29T20:22:09.102Z,12.69
2022-11-29T20:24:56.091Z,12.71
2022-11-29T20:27:43.116Z,12.71
2022-11-29T20:30:30.217Z,12.67
2022-11-29T20:33:21.368Z,12.72
2022-11-29T20:36:21.455Z,12.76
2022-11-29T20:39:19.197Z,12.81
2022-11-29T20:42:26.683Z,12.83
2022-11-29T20:45:15.842Z,12.84
2022-11-29T20:48:13.100Z,12.78
2022-11-29T20:51:02.456Z,12.76
2022-11-29T20:53:50.988Z,12.81
2022-11-29T20:56:38.228Z,12.84
2022-11-29T20:59:24.887Z,12.85
2022-11-29T21:02:12.599Z,12.86
2022-11-29T21:04:59.935Z,12.88
2022-11-29T21:07:47.288Z,12.87
2022-11-29T21:10:35.696Z,12.85
2022-11-29T21:13:24.356Z,12.86
2022-11-29T21:16:13.136Z,12.86
2022-11-29T21:19:02.833Z,12.87
2022-11-29T21:22:02.939Z,12.87
2022-11-29T21:24:57.850Z,12.89
2022-11-29T21:27:46.643Z,12.89
2022-11-29T21:30:34.206Z,12.91
2022-11-29T21:33:21.529Z,12.93
2022-11-29T21:36:10.693Z,12.95
2022-11-29T21:39:03.562Z,12.95
2022-11-29T21:41:52.395Z,12.95
2022-11-29T21:44:40.646Z,12.98
2022-11-29T21:47:28.061Z,12.95
2022-11-29T21:50:14.976Z,12.96
2022-11-29T21:53:02.017Z,12.96
2022-11-29T21:55:48.929Z,12.96
2022-11-29T21:58:37.084Z,12.96
2022-11-29T22:01:27.145Z,12.98
2022-11-29T22:04:14.497Z,12.99
2022-11-29T22:07:01.299Z,13.00
2022-11-29T22:09:49.029Z,13.00
2022-11-29T22:12:36.028Z,12.92
2022-11-29T22:15:25.235Z,12.89
2022-11-29T22:18:13.966Z,12.92
2022-11-29T22:21:06.394Z,12.92
2022-11-29T22:23:53.697Z,12.91
2022-11-29T22:26:43.853Z,12.92
2022-11-29T22:29:30.506Z,12.92
2022-11-29T22:32:18.098Z,12.91
2022-11-29T22:35:06.575Z,12.91
2022-11-29T22:37:53.604Z,12.90
2022-11-29T22:40:40.541Z,12.92
2022-11-29T22:43:27.908Z,12.92
2022-11-29T22:46:16.515Z,12.91
2022-11-29T22:49:03.855Z,12.90
2022-11-29T22:51:55.220Z,12.89
2022-11-29T22:54:42.370Z,12.89
2022-11-29T22:57:29.251Z,12.85
2022-11-29T23:00:16.567Z,12.85
2022-11-29T23:03:03.371Z,12.79
2022-11-29T23:05:50.364Z,12.78
2022-11-29T23:08:39.768Z,12.78
2022-11-29T23:11:29.866Z,12.76
2022-11-29T23:14:16.477Z,12.78
2022-11-29T23:17:03.215Z,12.77
2022-11-29T23:19:49.929Z,12.83
2022-11-29T23:22:39.257Z,12.84
2022-11-29T23:25:27.508Z,12.83
2022-11-29T23:28:14.525Z,12.80
2022-11-29T23:31:01.774Z,12.79
2022-11-29T23:33:49.594Z,12.80
2022-11-29T23:36:36.719Z,12.81
2022-11-29T23:39:23.642Z,12.85
2022-11-29T23:42:11.923Z,12.85
2022-11-29T23:44:58.833Z,12.83
2022-11-29T23:47:46.032Z,12.82
2022-11-29T23:50:33.152Z,12.83
2022-11-29T23:53:20.436Z,12.83
2022-11-29T23:56:09.529Z,12.82
2022-11-29T23:58:58.168Z,12.84
